Map

Track Data

SID SEASON NUMBER BASIN SUBBASIN NAME ISO_TIME NATURE LAT LON WMO_WIND WMO_PRES WMO_AGENCY TRACK_TYPE DIST2LAND LANDFALL IFLAG USA_AGENCY USA_ATCF_ID USA_LAT USA_LON USA_RECORD USA_STATUS USA_WIND USA_PRES USA_SSHS USA_R34_NE USA_R34_SE USA_R34_SW USA_R34_NW USA_R50_NE USA_R50_SE USA_R50_SW USA_R50_NW USA_R64_NE USA_R64_SE USA_R64_SW USA_R64_NW USA_POCI USA_ROCI USA_RMW USA_EYE TOKYO_LAT TOKYO_LON TOKYO_GRADE TOKYO_WIND TOKYO_PRES TOKYO_R50_DIR TOKYO_R50_LONG TOKYO_R50_SHORT TOKYO_R30_DIR TOKYO_R30_LONG TOKYO_R30_SHORT TOKYO_LAND CMA_LAT CMA_LON CMA_CAT CMA_WIND CMA_PRES HKO_LAT HKO_LON HKO_CAT HKO_WIND HKO_PRES NEWDELHI_LAT NEWDELHI_LON NEWDELHI_GRADE NEWDELHI_WIND NEWDELHI_PRES NEWDELHI_CI NEWDELHI_DP NEWDELHI_POCI REUNION_LAT REUNION_LON REUNION_TYPE REUNION_WIND REUNION_PRES REUNION_TNUM REUNION_CI REUNION_RMW REUNION_R34_NE REUNION_R34_SE REUNION_R34_SW REUNION_R34_NW REUNION_R50_NE REUNION_R50_SE REUNION_R50_SW REUNION_R50_NW REUNION_R64_NE REUNION_R64_SE REUNION_R64_SW REUNION_R64_NW BOM_LAT BOM_LON BOM_TYPE BOM_WIND BOM_PRES BOM_TNUM BOM_CI BOM_RMW BOM_R34_NE BOM_R34_SE BOM_R34_SW BOM_R34_NW BOM_R50_NE BOM_R50_SE BOM_R50_SW BOM_R50_NW BOM_R64_NE BOM_R64_SE BOM_R64_SW BOM_R64_NW BOM_ROCI BOM_POCI BOM_EYE BOM_POS_METHOD BOM_PRES_METHOD NADI_LAT NADI_LON NADI_CAT NADI_WIND NADI_PRES WELLINGTON_LAT WELLINGTON_LON WELLINGTON_WIND WELLINGTON_PRES DS824_LAT DS824_LON DS824_STAGE DS824_WIND DS824_PRES TD9636_LAT TD9636_LON TD9636_STAGE TD9636_WIND TD9636_PRES TD9635_LAT TD9635_LON TD9635_WIND TD9635_PRES TD9635_ROCI NEUMANN_LAT NEUMANN_LON NEUMANN_CLASS NEUMANN_WIND NEUMANN_PRES MLC_LAT MLC_LON MLC_CLASS MLC_WIND MLC_PRES USA_GUST BOM_GUST BOM_GUST_PER REUNION_GUST REUNION_GUST_PER USA_SEAHGT USA_SEARAD_NE USA_SEARAD_SE USA_SEARAD_SW USA_SEARAD_NW STORM_SPEED STORM_DIR
1851214N14321 1851 9 NA NA NOT_NAMED 1851-08-01 12:00:00 TS 13.5000 -39.0000 main 1699 1655 _____________O -1 13.5000 -39.0000 TD 30 10 276
1851214N14321 1851 9 NA NA NOT_NAMED 1851-08-01 15:00:00 TS 13.5527 -39.4999 main 1662 1620 _____________P -1 13.5527 -39.4999 TD 30 10 276
1851214N14321 1851 9 NA NA NOT_NAMED 1851-08-01 18:00:00 TS 13.6000 -40.0000 main 1620 1578 _____________O -1 13.6000 -40.0000 TD 30 10 275
1851214N14321 1851 9 NA NA NOT_NAMED 1851-08-01 21:00:00 TS 13.6424 -40.5001 main 1578 1545 _____________P -1 13.6424 -40.5001 TD 30 10 276
1851214N14321 1851 9 NA NA NOT_NAMED 1851-08-02 00:00:00 TS 13.7000 -41.0000 main 1545 1513 _____________O -1 13.7000 -41.0000 TD 30 10 279
1851214N14321 1851 9 NA NA NOT_NAMED 1851-08-02 03:00:00 TS 13.7999 -41.4999 main 1513 1482 _____________P -1 13.7999 -41.4999 TD 30 10 282
1851214N14321 1851 9 NA NA NOT_NAMED 1851-08-02 06:00:00 TS 13.9000 -42.0000 main 1482 1445 _____________O -1 13.9000 -42.0000 TD 30 10 279
1851214N14321 1851 9 NA NA NOT_NAMED 1851-08-02 09:00:00 TS 13.9499 -42.5001 main 1445 1417 _____________P -1 13.9499 -42.5001 TD 32 10 276
1851214N14321 1851 9 NA NA NOT_NAMED 1851-08-02 12:00:00 TS 14.0000 -43.0000 main 1417 1391 _____________O -1 14.0000 -43.0000 TS 35 10 279
1851214N14321 1851 9 NA NA NOT_NAMED 1851-08-02 15:00:00 TS 14.0999 -43.4999 main 1391 1367 _____________P -1 14.0999 -43.4999 TS 35 10 282
1851214N14321 1851 9 NA NA NOT_NAMED 1851-08-02 18:00:00 TS 14.2000 -44.0000 main 1367 1336 _____________O -1 14.2000 -44.0000 TS 35 10 279
1851214N14321 1851 9 NA NA NOT_NAMED 1851-08-02 21:00:00 TS 14.2499 -44.5001 main 1336 1316 _____________P -1 14.2499 -44.5001 TS 35 10 276
1851214N14321 1851 9 NA NA NOT_NAMED 1851-08-03 00:00:00 TS 14.3000 -45.0000 main 1316 1290 _____________O -1 14.3000 -45.0000 TS 35 10 279
1851214N14321 1851 9 NA NA NOT_NAMED 1851-08-03 03:00:00 TS 14.3999 -45.4999 main 1290 1267 _____________P -1 14.3999 -45.4999 TS 35 10 282
1851214N14321 1851 9 NA NA NOT_NAMED 1851-08-03 06:00:00 TS 14.5000 -46.0000 main 1267 1243 _____________O -1 14.5000 -46.0000 TS 35 10 279
1851214N14321 1851 9 NA NA NOT_NAMED 1851-08-03 09:00:00 TS 14.5574 -46.5001 main 1246 1218 _____________P -1 14.5574 -46.5001 TS 35 10 276
1851214N14321 1851 9 NA NA NOT_NAMED 1851-08-03 12:00:00 TS 14.6000 -47.0000 main 1218 1191 _____________O -1 14.6000 -47.0000 TS 35 10 275
1851214N14321 1851 9 NA NA NOT_NAMED 1851-08-03 15:00:00 TS 14.6499 -47.5000 main 1191 1176 _____________P -1 14.6499 -47.5000 TS 35 10 276
1851214N14321 1851 9 NA NA NOT_NAMED 1851-08-03 18:00:00 TS 14.7000 -48.0000 main 1176 1153 _____________O -1 14.7000 -48.0000 TS 35 10 275
1851214N14321 1851 9 NA NA NOT_NAMED 1851-08-03 21:00:00 TS 14.7424 -48.5001 main 1153 1142 _____________P -1 14.7424 -48.5001 TS 35 10 276
1851214N14321 1851 9 NA NA NOT_NAMED 1851-08-04 00:00:00 TS 14.8000 -49.0000 main 1142 1131 _____________O -1 14.8000 -49.0000 TS 35 10 279
1851214N14321 1851 9 NA NA NOT_NAMED 1851-08-04 03:00:00 TS 14.8999 -49.4999 main 1131 1117 _____________P -1 14.8999 -49.4999 TS 35 10 282
1851214N14321 1851 9 NA NA NOT_NAMED 1851-08-04 06:00:00 TS 15.0000 -50.0000 main 1117 1096 _____________O -1 15.0000 -50.0000 TS 35 10 279
1851214N14321 1851 9 NA NA NOT_NAMED 1851-08-04 09:00:00 TS 15.0499 -50.5001 main 1096 1088 _____________P -1 15.0499 -50.5001 TS 35 10 276
1851214N14321 1851 9 NA NA NOT_NAMED 1851-08-04 12:00:00 TS 15.1000 -51.0000 main 1088 1081 _____________O -1 15.1000 -51.0000 TS 35 10 279
1851214N14321 1851 9 NA NA NOT_NAMED 1851-08-04 15:00:00 TS 15.1999 -51.4999 main 1082 1076 _____________P -1 15.1999 -51.4999 TS 35 10 282
1851214N14321 1851 9 NA NA NOT_NAMED 1851-08-04 18:00:00 TS 15.3000 -52.0000 main 1079 1055 _____________O -1 15.3000 -52.0000 TS 35 10 279
1851214N14321 1851 9 NA NA NOT_NAMED 1851-08-04 21:00:00 TS 15.3499 -52.5001 main 1055 1014 _____________P -1 15.3499 -52.5001 TS 35 10 276
1851214N14321 1851 9 NA NA NOT_NAMED 1851-08-05 00:00:00 TS 15.4000 -53.0000 main 1014 974 _____________O -1 15.4000 -53.0000 TS 35 10 279
1851214N14321 1851 9 NA NA NOT_NAMED 1851-08-05 03:00:00 TS 15.4999 -53.4999 main 974 935 _____________P -1 15.4999 -53.4999 TS 35 10 282
1851214N14321 1851 9 NA NA NOT_NAMED 1851-08-05 06:00:00 TS 15.6000 -54.0000 main 935 892 _____________O -1 15.6000 -54.0000 TS 35 10 279
1851214N14321 1851 9 NA NA NOT_NAMED 1851-08-05 09:00:00 TS 15.6499 -54.5001 main 892 857 _____________P -1 15.6499 -54.5001 TS 35 10 276
1851214N14321 1851 9 NA NA NOT_NAMED 1851-08-05 12:00:00 TS 15.7000 -55.0000 main 857 824 _____________O -1 15.7000 -55.0000 TS 35 10 279
1851214N14321 1851 9 NA NA NOT_NAMED 1851-08-05 15:00:00 TS 15.7999 -55.4999 main 824 794 _____________P -1 15.7999 -55.4999 TS 35 10 282
1851214N14321 1851 9 NA NA NOT_NAMED 1851-08-05 18:00:00 TS 15.9000 -56.0000 main 794 759 _____________O -1 15.9000 -56.0000 TS 35 10 279
1851214N14321 1851 9 NA NA NOT_NAMED 1851-08-05 21:00:00 TS 15.9499 -56.5001 main 759 734 _____________P -1 15.9499 -56.5001 TS 35 10 276
1851214N14321 1851 9 NA NA NOT_NAMED 1851-08-06 00:00:00 TS 16.0000 -57.0000 main 734 713 _____________O -1 16.0000 -57.0000 TS 35 10 278
1851214N14321 1851 9 NA NA NOT_NAMED 1851-08-06 03:00:00 TS 16.0924 -57.5000 main 713 696 _____________P -1 16.0924 -57.5000 TS 35 10 282
1851214N14321 1851 9 NA NA NOT_NAMED 1851-08-06 06:00:00 TS 16.2000 -58.0000 main 696 682 _____________O -1 16.2000 -58.0000 TS 35 10 283
1851214N14321 1851 9 NA NA NOT_NAMED 1851-08-06 09:00:00 TS 16.3074 -58.5000 main 682 673 _____________P -1 16.3074 -58.5000 TS 35 10 282
1851214N14321 1851 9 NA NA NOT_NAMED 1851-08-06 12:00:00 TS 16.4000 -59.0000 main 673 658 _____________O -1 16.4000 -59.0000 TS 35 10 278
1851214N14321 1851 9 NA NA NOT_NAMED 1851-08-06 15:00:00 TS 16.4499 -59.5001 main 658 624 _____________P -1 16.4499 -59.5001 TS 35 10 276
1851214N14321 1851 9 NA NA NOT_NAMED 1851-08-06 18:00:00 TS 16.5000 -60.0000 main 624 570 _____________O -1 16.5000 -60.0000 TS 35 10 278
1851214N14321 1851 9 NA CS NOT_NAMED 1851-08-06 21:00:00 TS 16.5924 -60.5000 main 570 516 _____________P -1 16.5924 -60.5000 TS 35 10 282
1851214N14321 1851 9 NA CS NOT_NAMED 1851-08-07 00:00:00 TS 16.7000 -61.0000 main 516 462 _____________O -1 16.7000 -61.0000 TS 35 10 282
1851214N14321 1851 9 NA CS NOT_NAMED 1851-08-07 03:00:00 TS 16.7999 -61.5001 main 462 408 _____________P -1 16.7999 -61.5001 TS 32 10 282
1851214N14321 1851 9 NA CS NOT_NAMED 1851-08-07 06:00:00 TS 16.9000 -62.0000 main 408 354 _____________O -1 16.9000 -62.0000 TD 30 10 282
1851214N14321 1851 9 NA CS NOT_NAMED 1851-08-07 09:00:00 TS 17.0002 -62.4999 main 354 301 _____________P -1 17.0002 -62.4999 TD 30 10 282
1851214N14321 1851 9 NA CS NOT_NAMED 1851-08-07 12:00:00 TS 17.1000 -63.0000 main 301 _____________O -1 17.1000 -63.0000 TD 30 10 282

About IBTrACS Database

This database is a web-friendly format of International Best Track Archive for Climate Stewardship (IBTrACS), a global best track data archive curated by NOAA dating back to 1842.

Updated: 2021-12-08